Time;durP1;ratioP1;P1;durP2;ratioP2;P2;SDS_P1;SDS_P2;PMS_P1;PMS_P2;Temp;Humidity;BMP_temperature;BMP_pressure;BME280_temperature;BME280_humidity;BME280_pressure;Samples;Min_cycle;Max_cycle;Signal;HPM_P1;HPM_P2
2024/02/08 00:01:57;;;;;;;5.05;3.35;;;10.70;72.10;;;6.32;100.00;94683.53;4950533;28;20050;-52
2024/02/08 00:04:23;;;;;;;4.25;3.10;;;10.70;72.10;;;6.34;100.00;94699.97;4950579;28;20031;-57
2024/02/08 00:06:49;;;;;;;5.78;3.50;;;10.70;72.10;;;6.35;100.00;94698.88;4949628;28;20030;-51
2024/02/08 00:09:15;;;;;;;4.88;3.33;;;10.80;72.10;;;6.33;100.00;94694.91;4950084;28;20066;-52
2024/02/08 00:11:41;;;;;;;5.35;2.90;;;10.80;72.20;;;6.33;100.00;94690.44;4949751;28;20054;-51
2024/02/08 00:14:07;;;;;;;8.13;3.47;;;10.70;72.10;;;6.33;100.00;94692.25;4950415;28;20046;-52
2024/02/08 00:16:32;;;;;;;4.90;3.33;;;10.70;72.10;;;6.35;100.00;94703.38;4949744;28;20034;-54
2024/02/08 00:19:02;;;;;;;4.43;2.70;;;10.70;72.10;;;6.35;100.00;94693.59;4949898;28;20030;-53
2024/02/08 00:21:27;;;;;;;5.07;3.35;;;10.70;72.10;;;6.35;100.00;94700.75;4950647;28;20035;-52
2024/02/08 00:23:54;;;;;;;5.47;3.17;;;10.70;72.10;;;6.30;100.00;94701.53;4949922;28;20540;-53
2024/02/08 00:26:20;;;;;;;5.15;3.35;;;10.70;72.10;;;6.31;100.00;94694.38;4954416;28;20032;-50
2024/02/08 00:28:46;;;;;;;5.32;3.22;;;10.70;72.30;;;6.31;100.00;94691.75;4965375;28;20034;-53
2024/02/08 00:31:12;;;;;;;6.50;3.10;;;10.70;72.40;;;6.32;100.00;94688.81;4953711;28;20085;-53
2024/02/08 00:33:38;;;;;;;7.88;3.58;;;10.70;72.30;;;6.33;100.00;94693.09;4953970;28;20308;-52
2024/02/08 00:36:05;;;;;;;3.92;3.10;;;10.70;72.40;;;6.34;100.00;94692.03;4952793;28;20023;-53
2024/02/08 00:38:30;;;;;;;4.22;2.78;;;10.70;72.40;;;6.36;100.00;94689.09;4953577;28;20386;-56
2024/02/08 00:40:56;;;;;;;4.50;2.92;;;10.70;72.50;;;6.35;100.00;94683.03;4952954;28;20026;-53
2024/02/08 00:43:23;;;;;;;5.85;3.13;;;10.70;72.40;;;6.38;100.00;94679.06;4951513;28;20118;-51
2024/02/08 00:45:49;;;;;;;4.70;2.72;;;10.70;72.40;;;6.40;100.00;94683.06;4953562;28;20034;-54
2024/02/08 00:48:15;;;;;;;9.50;3.90;;;10.70;72.40;;;6.38;100.00;94674.56;4950314;28;20588;-53
2024/02/08 00:50:41;;;;;;;6.10;3.22;;;10.70;72.80;;;6.39;100.00;94683.28;4953551;28;20081;-52
2024/02/08 00:53:06;;;;;;;8.35;2.92;;;10.70;72.40;;;6.38;100.00;94676.41;4952732;28;20089;-50
2024/02/08 00:55:35;;;;;;;4.68;3.17;;;10.70;72.50;;;6.38;100.00;94679.84;4953467;28;20035;-50
2024/02/08 00:58:02;;;;;;;4.82;3.25;;;10.70;72.50;;;6.39;100.00;94684.13;4953280;28;20499;-51
2024/02/08 01:00:37;;;;;;;5.40;3.10;;;10.70;72.40;;;6.33;100.00;94681.69;4952224;28;20060;-55
2024/02/08 01:03:07;;;;;;;5.43;3.00;;;10.70;72.60;;;6.37;100.00;94683.56;4953398;28;20081;-54
2024/02/08 01:05:33;;;;;;;7.00;3.20;;;10.70;72.60;;;6.34;100.00;94678.78;4952181;28;20057;-50
2024/02/08 01:08:00;;;;;;;4.75;3.22;;;10.70;72.70;;;6.33;100.00;94665.81;4950639;28;20108;-53
2024/02/08 01:10:28;;;;;;;5.32;3.67;;;10.70;72.70;;;6.33;100.00;94671.91;4947252;28;20105;-50
2024/02/08 01:12:54;;;;;;;7.80;3.25;;;10.70;72.70;;;6.36;100.00;94670.59;4946110;28;20031;-56
2024/02/08 01:15:22;;;;;;;5.40;3.13;;;10.70;72.70;;;6.37;100.00;94667.69;4944439;28;20113;-51
2024/02/08 01:17:51;;;;;;;5.22;3.20;;;10.70;72.70;;;6.36;100.00;94670.59;4941045;28;20042;-53
2024/02/08 01:20:22;;;;;;;7.55;3.47;;;10.70;72.80;;;6.38;100.00;94671.91;4942464;28;20105;-51
2024/02/08 01:22:50;;;;;;;5.93;3.38;;;10.70;72.80;;;6.36;100.00;94678.53;4946459;28;20417;-54
2024/02/08 01:25:16;;;;;;;4.70;2.90;;;10.70;72.90;;;6.35;100.00;94677.72;4951772;28;20113;-54
2024/02/08 01:27:43;;;;;;;7.68;3.30;;;10.70;72.90;;;6.37;100.00;94675.63;4942589;28;20118;-51
2024/02/08 01:30:13;;;;;;;5.68;3.42;;;10.70;72.90;;;6.38;100.00;94671.13;4943430;28;20531;-52
2024/02/08 01:32:42;;;;;;;5.38;3.40;;;10.70;72.80;;;6.37;100.00;94669.56;4941791;28;20039;-53
2024/02/08 01:35:10;;;;;;;6.82;3.65;;;10.70;72.80;;;6.37;100.00;94665.06;4947152;28;20023;-54
2024/02/08 01:37:38;;;;;;;5.55;3.50;;;10.70;72.70;;;6.30;100.00;94663.69;4941685;28;20038;-50
2024/02/08 01:40:16;;;;;;;6.00;3.47;;;10.70;72.80;;;6.29;100.00;94676.13;4944266;28;20019;-49
2024/02/08 01:42:49;;;;;;;6.85;3.55;;;10.70;72.90;;;6.19;100.00;94660.22;4947537;28;20100;-51
2024/02/08 01:45:31;;;;;;;;;;;10.70;72.80;;;6.20;100.00;94667.88;4945244;28;20057;-52
2024/02/08 01:48:10;;;;;;;6.75;4.50;;;10.60;72.50;;;6.19;100.00;94660.22;4944951;28;20365;-53
2024/02/08 01:50:47;;;;;;;5.70;4.22;;;10.60;72.60;;;6.21;100.00;94658.91;4945746;28;20063;-50
2024/02/08 01:53:20;;;;;;;9.00;4.57;;;10.60;72.60;;;6.16;100.00;94658.88;4946577;28;20117;-50
2024/02/08 01:55:49;;;;;;;6.32;4.25;;;10.60;72.60;;;6.18;100.00;94654.16;4945751;28;20041;-49
2024/02/08 01:58:15;;;;;;;7.05;4.32;;;10.60;72.60;;;6.15;100.00;94651.22;4943055;28;20441;-49
2024/02/08 02:00:48;;;;;;;8.05;4.85;;;10.60;72.70;;;6.11;100.00;94652.78;4945937;28;20027;-50
2024/02/08 02:03:16;;;;;;;9.70;5.20;;;10.60;72.70;;;6.10;100.00;94657.28;4942094;28;20490;-50
2024/02/08 02:05:46;;;;;;;8.25;4.70;;;10.60;72.80;;;6.10;100.00;94652.00;4942772;28;20546;-50
2024/02/08 02:08:26;;;;;;;7.93;4.25;;;10.60;72.80;;;6.03;100.00;94646.16;4940951;28;20176;-53
2024/02/08 02:11:41;;;;;;;9.43;5.18;;;10.60;72.90;;;6.10;100.00;94645.91;4947511;28;20037;-51
2024/02/08 02:14:10;;;;;;;9.70;5.32;;;10.60;72.80;;;6.10;100.00;94653.84;4892829;28;20088;-50
2024/02/08 02:16:36;;;;;;;8.25;5.10;;;10.50;72.80;;;6.08;100.00;94646.19;4938443;28;20033;-51
2024/02/08 02:19:03;;;;;;;13.43;5.80;;;10.60;72.80;;;6.05;100.00;94651.16;4943086;28;20066;-55
2024/02/08 02:21:29;;;;;;;9.57;5.50;;;10.60;72.90;;;6.01;100.00;94650.88;4943313;28;20045;-54
2024/02/08 02:23:55;;;;;;;7.65;4.57;;;10.50;72.80;;;5.99;100.00;94642.44;4938261;28;20268;-51
2024/02/08 02:26:22;;;;;;;11.02;5.55;;;10.50;72.90;;;6.03;100.00;94646.94;4941480;28;20147;-52
2024/02/08 02:28:50;;;;;;;7.65;4.88;;;10.50;72.90;;;6.03;100.00;94654.09;4944291;28;20092;-51
2024/02/08 02:31:19;;;;;;;9.65;5.75;;;10.50;73.00;;;6.07;100.00;94641.94;4946412;28;20033;-52
2024/02/08 02:33:46;;;;;;;10.23;5.60;;;10.50;72.90;;;6.07;100.00;94634.00;4937793;28;20117;-54
2024/02/08 02:36:14;;;;;;;10.70;5.22;;;10.60;73.00;;;6.06;100.00;94631.63;4946179;28;20085;-53
2024/02/08 02:38:41;;;;;;;10.05;5.20;;;10.60;73.70;;;6.05;100.00;94633.47;4941600;28;20022;-53
2024/02/08 02:41:08;;;;;;;9.52;5.63;;;10.60;72.90;;;6.05;100.00;94624.72;4943938;28;20022;-50
2024/02/08 02:43:37;;;;;;;9.95;5.07;;;10.60;72.90;;;6.05;100.00;94633.47;4949386;28;20409;-50
2024/02/08 02:46:05;;;;;;;11.60;5.28;;;10.60;72.90;;;6.08;100.00;94634.78;4938310;28;20102;-55
2024/02/08 02:48:34;;;;;;;12.68;5.03;;;10.60;72.90;;;6.07;100.00;94628.72;4943073;28;20509;-51
2024/02/08 02:51:04;;;;;;;8.43;4.90;;;10.50;72.80;;;6.03;100.00;94627.66;4942497;28;20059;-50
2024/02/08 02:53:30;;;;;;;9.18;5.05;;;10.60;72.90;;;6.03;100.00;94623.16;4944935;28;20034;-53
2024/02/08 02:55:58;;;;;;;8.25;5.15;;;10.60;72.90;;;6.00;100.00;94625.53;4946366;28;20980;-56
2024/02/08 02:58:27;;;;;;;9.55;5.32;;;10.60;72.80;;;6.04;100.00;94631.88;4940618;28;20023;-52
2024/02/08 03:01:05;;;;;;;9.63;5.28;;;10.60;72.90;;;6.07;100.00;94627.91;4942766;28;20035;-50
2024/02/08 03:03:40;;;;;;;12.82;6.13;;;10.60;72.90;;;6.08;100.00;94626.84;4956591;28;20481;-52
2024/02/08 03:06:13;;;;;;;9.85;5.43;;;10.60;72.80;;;6.07;100.00;94631.34;4940744;28;20059;-50
2024/02/08 03:08:42;;;;;;;10.63;5.85;;;10.60;72.80;;;6.06;100.00;94629.78;4942851;28;20053;-51
2024/02/08 03:11:11;;;;;;;10.07;6.15;;;10.60;72.70;;;6.07;100.00;94622.63;4942072;28;20568;-53
2024/02/08 03:13:42;;;;;;;9.43;5.43;;;10.60;72.70;;;6.01;100.00;94611.22;4944238;28;20393;-51
2024/02/08 03:16:16;;;;;;;10.27;5.60;;;10.60;72.70;;;6.00;100.00;94615.72;4936251;28;20243;-53
2024/02/08 03:18:45;;;;;;;11.60;6.03;;;10.60;72.70;;;6.02;100.00;94612.84;4942363;28;20027;-50
2024/02/08 03:21:17;;;;;;;10.07;5.50;;;10.60;72.70;;;6.00;100.00;94609.66;4939744;28;20023;-51
2024/02/08 03:23:51;;;;;;;10.70;5.32;;;10.60;72.70;;;6.03;100.00;94611.78;4940691;28;20184;-51
2024/02/08 03:26:17;;;;;;;10.65;5.53;;;10.60;72.70;;;6.01;100.00;94609.38;4949042;28;20030;-50
2024/02/08 03:28:45;;;;;;;11.10;5.25;;;10.60;72.60;;;6.00;100.00;94614.94;4949706;28;20030;-54
2024/02/08 03:31:14;;;;;;;9.98;5.32;;;10.60;72.60;;;6.00;100.00;94609.66;4949627;28;20046;-50
2024/02/08 03:33:43;;;;;;;10.50;5.28;;;10.60;72.60;;;6.00;100.00;94620.22;4951300;28;20029;-50
2024/02/08 03:36:09;;;;;;;8.55;5.15;;;10.60;72.60;;;6.00;100.00;94607.00;4946957;28;20077;-52
2024/02/08 03:38:37;;;;;;;15.15;5.53;;;10.60;72.60;;;5.99;100.00;94610.72;4951459;28;20038;-50
2024/02/08 03:41:03;;;;;;;12.48;6.13;;;10.60;72.60;;;5.95;100.00;94613.06;4950153;28;20061;-57
2024/02/08 03:43:29;;;;;;;11.23;5.53;;;10.60;72.60;;;5.92;100.00;94610.94;4950967;28;20041;-53
2024/02/08 03:45:55;;;;;;;9.68;4.95;;;10.60;72.60;;;5.89;100.00;94605.34;4950774;28;20054;-52
2024/02/08 03:48:22;;;;;;;10.05;5.63;;;10.60;72.60;;;5.89;100.00;94614.09;4950469;28;20058;-50
2024/02/08 03:50:50;;;;;;;8.02;4.88;;;10.60;72.60;;;5.89;100.00;94613.28;4951618;28;20069;-53
2024/02/08 03:53:20;;;;;;;7.85;4.22;;;10.60;72.60;;;5.83;100.00;94611.66;4948787;29;20030;-56
2024/02/08 03:55:47;;;;;;;10.10;5.70;;;10.50;72.60;;;5.87;100.00;94604.81;4950341;28;20460;-55
2024/02/08 03:58:14;;;;;;;10.32;5.28;;;10.50;72.60;;;5.89;100.00;94598.22;4951082;28;20482;-51
2024/02/08 04:00:43;;;;;;;7.80;4.85;;;10.50;72.60;;;5.89;100.00;94607.97;4953106;28;20026;-51
2024/02/08 04:03:33;;;;;;;10.68;5.25;;;10.50;72.70;;;5.87;100.00;94599.53;4955081;28;20031;-50
2024/02/08 04:06:00;;;;;;;12.02;5.45;;;10.50;72.60;;;5.87;100.00;94600.31;4953234;28;20031;-51
2024/02/08 04:54:43;;;;;;;9.10;5.00;;;10.50;73.50;;;5.84;100.00;94570.97;4950690;28;20100;-51
2024/02/08 04:57:09;;;;;;;7.63;4.70;;;10.50;73.40;;;5.86;100.00;94574.97;4953692;28;20023;-50
2024/02/08 04:59:44;;;;;;;7.40;4.85;;;10.50;73.50;;;5.89;100.00;94570.97;4962512;28;20058;-50
2024/02/08 05:02:13;;;;;;;8.90;4.68;;;10.50;73.60;;;5.89;100.00;94570.97;4952988;28;20077;-51
2024/02/08 05:04:40;;;;;;;6.53;4.60;;;10.50;73.60;;;5.90;100.00;94570.75;4952817;28;20114;-50
2024/02/08 05:07:07;;;;;;;8.43;4.03;;;10.50;73.50;;;5.91;100.00;94567.03;4950454;28;20023;-52
2024/02/08 05:09:34;;;;;;;7.93;4.30;;;10.50;73.40;;;5.90;100.00;94568.09;4953372;28;20026;-50
2024/02/08 05:12:05;;;;;;;10.63;5.10;;;10.50;73.40;;;5.89;100.00;94570.97;4949570;28;20046;-51
2024/02/08 05:14:35;;;;;;;6.20;4.35;;;10.50;73.30;;;5.90;100.00;94556.72;4953519;28;20037;-50
2024/02/08 05:17:02;;;;;;;7.82;4.50;;;10.60;73.40;;;5.90;100.00;94568.09;4952129;28;20027;-55
2024/02/08 05:19:28;;;;;;;6.95;4.55;;;10.60;73.30;;;5.89;100.00;94553.28;4952475;28;20035;-51
2024/02/08 05:21:58;;;;;;;7.45;4.45;;;10.60;73.30;;;5.85;100.00;94552.22;4953517;28;20022;-56
2024/02/08 05:24:27;;;;;;;6.47;4.25;;;10.50;73.20;;;5.86;100.00;94545.06;4950317;28;20042;-54
2024/02/08 05:26:55;;;;;;;7.38;4.07;;;10.60;73.30;;;5.88;100.00;94535.84;4967569;23;20062;-50
2024/02/08 05:29:20;;;;;;;7.43;4.22;;;10.50;73.30;;;5.87;100.00;94544.81;4955190;28;20113;-50
2024/02/08 05:31:48;;;;;;;6.20;3.85;;;10.50;73.30;;;5.86;100.00;94547.72;4955299;28;20477;-48
2024/02/08 05:34:15;;;;;;;8.40;4.35;;;10.50;73.30;;;5.84;100.00;94547.19;4958321;28;20370;-50
2024/02/08 05:36:42;;;;;;;7.85;4.40;;;10.50;73.30;;;5.83;100.00;94533.19;4969992;28;20022;-47
2024/02/08 05:39:12;;;;;;;8.18;4.50;;;10.50;73.30;;;5.80;100.00;94523.94;4972365;28;20054;-50
2024/02/08 05:41:44;;;;;;;7.93;3.97;;;10.50;73.30;;;5.84;100.00;94526.06;4978454;28;20014;-52
2024/02/08 05:44:12;;;;;;;6.30;4.25;;;10.50;73.40;;;5.84;100.00;94524.19;4971393;28;20022;-49
2024/02/08 05:46:38;;;;;;;8.88;4.25;;;10.50;73.30;;;5.84;100.00;94518.13;4971368;28;20027;-52
2024/02/08 05:49:11;;;;;;;8.57;4.28;;;10.50;73.40;;;5.86;100.00;94518.63;4975297;28;20058;-53
2024/02/08 05:51:51;;;;;;;8.13;4.57;;;10.50;73.50;;;5.84;100.00;94513.63;4974225;28;20108;-48
2024/02/08 05:54:31;;;;;;;6.65;4.15;;;10.50;73.50;;;5.89;100.00;94520.75;4986211;28;20033;-48
2024/02/08 05:57:03;;;;;;;5.53;4.20;;;10.50;73.50;;;5.89;100.00;94515.47;4971646;28;20026;-51
2024/02/08 05:59:31;;;;;;;7.10;3.90;;;10.50;73.60;;;5.88;100.00;94522.63;4991557;28;20106;-54
2024/02/08 06:02:01;;;;;;;7.47;4.18;;;10.50;73.70;;;5.90;100.00;94520.50;4973371;28;20030;-53
2024/02/08 06:04:34;;;;;;;7.95;5.47;;;10.50;73.60;;;5.92;100.00;94526.34;4975848;28;20018;-49
2024/02/08 06:07:07;;;;;;;6.95;5.25;;;10.50;73.60;;;5.91;100.00;94530.03;4972558;28;20252;-49
2024/02/08 06:12:28;;;;;;;6.07;3.55;;;10.50;73.70;;;5.94;100.00;94512.88;4984345;28;20018;-50
2024/02/08 06:15:00;;;;;;;4.97;3.67;;;10.60;73.80;;;5.97;100.00;94507.06;4968479;28;20041;-56
2024/02/08 06:17:33;;;;;;;4.70;3.30;;;10.50;73.70;;;6.00;100.00;94517.13;4969397;28;20025;-48
2024/02/08 06:20:08;;;;;;;5.45;3.60;;;10.60;73.80;;;6.00;100.00;94515.28;4969996;28;20543;-49
2024/02/08 06:22:39;;;;;;;5.88;3.97;;;10.60;73.80;;;6.02;100.00;94513.19;4984288;28;20030;-51
2024/02/08 06:25:09;;;;;;;5.43;3.53;;;10.60;73.80;;;6.07;100.00;94515.03;4969744;28;20034;-56
2024/02/08 06:27:41;;;;;;;8.48;4.10;;;10.60;73.80;;;6.08;100.00;94519.28;4969153;28;20088;-50
2024/02/08 06:30:18;;;;;;;6.53;3.90;;;10.60;73.80;;;6.09;100.00;94515.56;4970457;28;20365;-48
2024/02/08 06:32:49;;;;;;;5.25;4.13;;;10.60;73.70;;;6.10;100.00;94524.28;4968388;28;20037;-49
2024/02/08 06:35:25;;;;;;;5.28;3.38;;;10.60;73.60;;;6.08;100.00;94523.75;4968669;28;20033;-49
2024/02/08 06:38:02;;;;;;;4.72;3.42;;;10.70;73.60;;;6.13;100.00;94524.56;4969678;28;20022;-53
2024/02/08 06:43:56;;;;;;;7.25;4.00;;;10.70;73.60;;;6.17;100.00;94508.94;4967960;28;20045;-48
2024/02/08 06:46:10;;;;;;;5.53;3.88;;;10.70;73.50;;;6.14;100.00;94502.38;4962979;28;20018;-53
2024/02/08 07:37:59;;;;;;;7.40;5.40;;;11.40;72.60;;;6.57;100.00;94517.97;4975074;28;20451;-52
2024/02/08 07:40:26;;;;;;;8.65;5.20;;;11.40;72.60;;;6.58;100.00;94517.72;4974669;28;20022;-50
2024/02/08 07:43:19;;;;;;;8.60;5.47;;;11.40;72.60;;;6.57;100.00;94525.91;4971112;28;20445;-49
2024/02/08 07:45:54;;;;;;;9.23;5.22;;;11.40;72.60;;;6.55;100.00;94520.91;4973469;28;20037;-52
2024/02/08 07:48:37;;;;;;;8.10;4.50;;;11.40;72.50;;;6.62;100.00;94523.28;4973138;28;20022;-48
2024/02/08 07:51:05;;;;;;;;;;;11.50;72.60;;;6.69;100.00;94521.16;4986327;28;20053;-48
2024/02/08 07:59:04;;;;;;;;;;;11.60;72.30;;;6.79;100.00;94517.72;4974013;28;20388;-51
2024/02/08 08:01:39;;;;;;;6.13;3.55;;;11.60;72.20;;;6.80;100.00;94521.94;4976526;28;19906;-48
2024/02/08 08:04:12;;;;;;;8.75;3.65;;;11.60;72.30;;;6.83;100.00;94518.75;4974666;28;20026;-52
2024/02/08 08:06:46;;;;;;;4.75;3.38;;;11.60;72.30;;;6.82;100.00;94509.22;4971918;28;20481;-48
2024/02/08 08:09:23;;;;;;;8.43;3.40;;;11.60;73.00;;;6.81;100.00;94518.25;4970821;28;20173;-49
2024/02/08 08:11:51;;;;;;;7.32;3.80;;;11.60;72.30;;;6.74;100.00;94518.50;4974291;28;20022;-47
2024/02/08 08:17:16;;;;;;;6.32;3.72;;;11.50;72.30;;;6.76;100.00;94521.66;4969096;28;20045;-47
2024/02/08 08:19:46;;;;;;;8.27;4.30;;;11.50;72.30;;;6.79;100.00;94520.34;4975367;28;20022;-48
2024/02/08 08:22:18;;;;;;;20.98;5.30;;;11.60;72.30;;;6.86;100.00;94515.56;4973964;28;20113;-49
2024/02/08 08:25:28;;;;;;;8.90;4.25;;;11.70;72.40;;;6.91;100.00;94516.38;4972010;28;20034;-49
2024/02/08 08:27:52;;;;;;;6.63;4.20;;;11.70;72.30;;;6.97;100.00;94513.72;4970332;28;20404;-49
2024/02/08 08:30:28;;;;;;;13.15;4.28;;;11.90;72.40;;;7.05;100.00;94521.09;4975355;28;20014;-50
2024/02/08 08:35:45;;;;;;;5.57;3.50;;;12.10;72.40;;;7.19;100.00;94511.56;4985648;28;20080;-50
2024/02/08 08:40:49;;;;;;;7.50;3.92;;;12.30;72.30;;;7.18;100.00;94518.72;4971786;28;20032;-49
2024/02/08 08:43:22;;;;;;;5.78;3.60;;;12.30;72.20;;;7.27;100.00;94512.84;4973296;28;20444;-50
2024/02/08 08:45:59;;;;;;;;;;;12.30;72.20;;;7.33;100.00;94512.59;4970623;28;20029;-50
2024/02/08 08:48:31;;;;;;;4.75;3.38;;;12.30;72.00;;;7.44;100.00;94501.94;4968755;28;19952;-50
2024/02/08 08:51:10;;;;;;;5.20;3.20;;;12.40;72.10;;;7.48;100.00;94495.81;4969191;28;20037;-51
2024/02/08 08:53:44;;;;;;;5.25;3.30;;;12.50;72.00;;;7.54;100.00;94496.59;4969303;28;20121;-49
2024/02/08 08:56:11;;;;;;;5.78;3.45;;;12.60;71.80;;;7.56;100.00;94507.72;4969080;28;20311;-49
2024/02/08 08:58:39;;;;;;;4.25;2.90;;;12.70;72.50;;;7.57;100.00;94510.09;4967743;28;20064;-50
2024/02/08 09:01:15;;;;;;;5.80;3.35;;;12.70;71.60;;;7.65;100.00;94511.41;4968651;28;20109;-50
2024/02/08 09:04:08;;;;;;;5.22;3.15;;;12.80;71.50;;;7.72;100.00;94509.25;4972024;28;20026;-49
2024/02/08 09:06:38;;;;;;;5.18;3.40;;;12.80;71.50;;;7.68;100.00;94508.22;4981424;28;20026;-54
2024/02/08 09:09:27;;;;;;;4.90;3.17;;;12.80;71.40;;;7.73;100.00;94513.47;4970324;28;20111;-57
2024/02/08 09:11:57;;;;;;;6.10;3.38;;;12.80;71.30;;;7.68;100.00;94510.88;4971812;28;20117;-54
2024/02/08 09:14:30;;;;;;;4.78;3.20;;;12.80;71.20;;;7.67;100.00;94511.13;4968398;28;20026;-50
2024/02/08 09:16:58;;;;;;;5.80;3.20;;;12.80;71.30;;;7.58;100.00;94517.00;4967464;28;20031;-50
2024/02/08 09:19:31;;;;;;;5.55;3.17;;;12.70;71.00;;;7.66;100.00;94512.97;4967804;28;20129;-55
2024/02/08 09:22:02;;;;;;;4.63;3.47;;;12.70;71.00;;;7.72;100.00;94517.19;4968429;28;20026;-49
2024/02/08 09:24:29;;;;;;;7.80;3.30;;;12.70;71.20;;;7.79;100.00;94511.59;4970098;28;20022;-50
2024/02/08 09:27:15;;;;;;;4.30;3.20;;;12.70;71.20;;;7.84;100.00;94515.03;4983564;28;20141;-52
2024/02/08 09:29:56;;;;;;;4.22;3.28;;;12.80;71.30;;;7.90;100.00;94507.84;4971577;28;20477;-54
2024/02/08 09:35:16;;;;;;;4.65;3.35;;;12.90;71.20;;;7.94;100.00;94500.13;4970026;28;20384;-52
2024/02/08 09:37:47;;;;;;;4.93;3.28;;;12.90;71.10;;;7.98;100.00;94506.47;4967738;28;20026;-51
2024/02/08 09:42:57;;;;;;;4.50;2.92;;;13.10;71.10;;;7.99;100.00;94498.25;4962894;28;20088;-51
2024/02/08 09:48:11;;;;;;;6.00;2.88;;;13.30;71.60;;;7.98;100.00;94504.59;4968862;28;20069;-51
2024/02/08 09:50:50;;;;;;;4.28;2.45;;;13.30;70.60;;;8.02;100.00;94507.50;4968470;28;20032;-48
2024/02/08 09:53:28;;;;;;;3.97;2.63;;;13.40;70.50;;;8.10;100.00;94513.00;4968464;28;20026;-52
2024/02/08 09:56:15;;;;;;;3.78;2.63;;;13.40;70.30;;;8.16;100.00;94508.47;4965694;28;20030;-56
2024/02/08 09:58:55;;;;;;;3.53;2.35;;;13.40;70.30;;;8.18;100.00;94514.31;4974327;28;20425;-57
2024/02/08 10:01:22;;;;;;;3.70;2.58;;;13.40;70.20;;;8.18;100.00;94505.53;4976694;28;20021;-50
2024/02/08 10:03:49;;;;;;;4.43;2.85;;;13.40;70.10;;;8.21;100.00;94505.00;4971045;28;20033;-49
2024/02/08 10:06:24;;;;;;;5.00;2.70;;;13.40;70.30;;;8.26;100.00;94510.28;4969523;28;20026;-50
2024/02/08 10:08:53;;;;;;;6.00;2.70;;;13.40;70.30;;;8.28;100.00;94513.44;4976258;28;20112;-52
2024/02/08 10:11:35;;;;;;;5.50;2.88;;;13.30;70.30;;;8.20;100.00;94501.56;4971300;28;20461;-52
2024/02/08 10:14:02;;;;;;;3.83;2.30;;;13.30;70.20;;;8.22;100.00;94512.69;4973098;28;20068;-53
2024/02/08 10:16:30;;;;;;;3.78;2.63;;;13.30;70.20;;;8.20;100.00;94517.47;4971232;28;20277;-48
2024/02/08 10:19:03;;;;;;;5.20;2.55;;;13.30;70.30;;;8.18;100.00;94505.53;4972049;28;20033;-50
2024/02/08 10:21:35;;;;;;;4.35;2.63;;;13.20;70.30;;;8.21;100.00;94510.28;4972619;28;20010;-52
2024/02/08 10:24:26;;;;;;;3.42;2.50;;;13.30;70.30;;;8.20;100.00;94508.72;4971399;28;20025;-51
2024/02/08 10:26:58;;;;;;;2.38;2.17;;;13.30;70.30;;;8.27;100.00;94509.19;4972786;28;20046;-52
2024/02/08 10:29:25;;;;;;;5.93;3.13;;;13.30;70.40;;;8.20;100.00;94514.03;4971592;28;20022;-53
2024/02/08 10:31:55;;;;;;;5.45;2.40;;;13.20;70.30;;;8.18;100.00;94511.66;4966965;28;20034;-50
2024/02/08 10:34:33;;;;;;;2.70;1.95;;;13.30;71.20;;;8.19;100.00;94512.44;4967773;28;20031;-49
2024/02/08 10:37:00;;;;;;;3.17;1.95;;;13.30;70.40;;;8.26;100.00;94505.75;4968433;28;20116;-52
2024/02/08 10:39:26;;;;;;;3.80;1.90;;;13.30;70.40;;;8.20;100.00;94506.84;4972047;28;20392;-53
2024/02/08 10:41:58;;;;;;;2.58;1.70;;;13.30;70.30;;;8.18;100.00;94514.31;4975581;28;20049;-51
2024/02/08 10:44:34;;;;;;;2.88;1.95;;;13.20;70.20;;;8.07;100.00;94505.59;4968244;28;20385;-55
2024/02/08 10:47:09;;;;;;;3.40;2.10;;;13.10;70.00;;;8.07;100.00;94504.81;4970440;28;20083;-50
2024/02/08 10:49:46;;;;;;;4.57;2.00;;;13.00;69.90;;;8.14;100.00;94509.81;4969249;28;20547;-50
2024/02/08 10:52:19;;;;;;;4.93;2.05;;;13.00;70.20;;;8.11;100.00;94505.84;4971765;28;20066;-52
2024/02/08 10:54:55;;;;;;;4.78;2.42;;;13.00;70.40;;;7.97;100.00;94504.88;4970706;28;20037;-54
2024/02/08 10:57:39;;;;;;;2.55;2.20;;;13.00;70.50;;;7.96;100.00;94501.44;4970507;28;20033;-52
2024/02/08 11:03:08;;;;;;;3.78;2.22;;;12.90;70.70;;;7.95;100.00;94489.22;4966929;28;20076;-55
2024/02/08 11:05:47;;;;;;;4.40;2.20;;;12.90;70.80;;;7.97;100.00;94484.47;4966669;28;20088;-55
2024/02/08 11:08:24;;;;;;;3.80;2.10;;;12.90;70.80;;;7.91;100.00;94482.13;4968880;28;20655;-52
2024/02/08 11:11:03;;;;;;;3.17;2.08;;;12.90;70.80;;;7.99;100.00;94481.53;4966459;28;20412;-53
2024/02/08 11:13:37;;;;;;;2.53;1.77;;;12.90;70.90;;;8.08;100.00;94466.63;4965656;28;20018;-54
2024/02/08 11:16:22;;;;;;;3.35;2.10;;;13.00;70.90;;;8.06;100.00;94466.13;4969907;28;20029;-54
2024/02/08 11:18:52;;;;;;;4.55;2.22;;;13.00;70.90;;;8.08;100.00;94458.66;4965916;28;20489;-53
2024/02/08 11:21:28;;;;;;;3.42;2.05;;;13.10;70.90;;;8.22;100.00;94458.84;4970033;28;20034;-55
2024/02/08 11:23:57;;;;;;;3.67;2.03;;;13.20;71.00;;;8.18;100.00;94447.19;4971129;28;20373;-54
2024/02/08 11:26:26;;;;;;;2.80;2.10;;;13.30;71.00;;;8.27;100.00;94446.34;4969298;28;20082;-51
2024/02/08 11:29:14;;;;;;;3.00;1.98;;;13.30;71.00;;;8.22;100.00;94449.03;4986082;28;20030;-54
2024/02/08 11:31:41;;;;;;;1.60;1.25;;;13.40;71.10;;;8.29;100.00;94427.47;4962207;28;20473;-56
2024/02/08 11:34:15;;;;;;;2.78;1.50;;;13.40;71.00;;;8.31;100.00;94431.44;4963770;28;20054;-54
2024/02/08 11:36:42;;;;;;;2.50;1.70;;;13.50;70.90;;;8.39;100.00;94422.09;4967781;28;20033;-52
2024/02/08 11:39:29;;;;;;;2.65;1.95;;;13.60;70.70;;;8.49;100.00;94421.22;4961388;28;20030;-55
2024/02/08 11:42:00;;;;;;;2.00;1.52;;;13.70;70.60;;;8.54;100.00;94414.00;4967642;28;20018;-53
2024/02/08 11:44:35;;;;;;;2.45;1.50;;;13.80;70.30;;;8.62;100.00;94409.16;4961572;28;20030;-54
2024/02/08 11:47:17;;;;;;;2.45;1.60;;;13.90;70.00;;;8.71;100.00;94410.94;4960936;28;20467;-52
2024/02/08 11:50:00;;;;;;;1.80;1.40;;;14.00;69.80;;;8.84;100.00;94406.84;4968859;28;20034;-56
2024/02/08 11:52:27;;;;;;;;;;;14.10;70.40;;;8.90;100.00;94402.25;4960407;28;20026;-50
2024/02/08 11:55:20;;;;;;;1.45;1.20;;;14.20;69.70;;;9.05;100.00;94404.72;4964329;28;19909;-52
2024/02/08 11:57:47;;;;;;;3.08;1.30;;;14.30;69.50;;;9.16;100.00;94394.78;4970477;28;20109;-51
2024/02/08 12:00:17;;;;;;;1.83;1.40;;;14.40;69.30;;;9.24;100.00;94402.13;4966459;28;20026;-54
2024/02/08 12:02:58;;;;;;;2.70;1.30;;;14.50;69.00;;;9.33;100.00;94395.09;4969249;28;20027;-53
2024/02/08 12:05:27;;;;;;;1.33;1.20;;;14.70;68.60;;;9.37;100.00;94400.63;4965648;28;20559;-56
2024/02/08 12:07:57;;;;;;;1.65;1.25;;;14.80;68.40;;;9.45;100.00;94395.47;4966027;28;20042;-52
2024/02/08 12:10:23;;;;;;;2.53;1.10;;;14.90;68.00;;;9.53;100.00;94393.25;4964975;28;20037;-55
2024/02/08 12:12:53;;;;;;;1.20;1.10;;;15.00;67.80;;;9.64;100.00;94390.19;4969644;28;20026;-54
2024/02/08 12:15:22;;;;;;;1.17;1.08;;;15.00;67.60;;;9.74;100.00;94381.25;4965076;28;20018;-55
2024/02/08 12:17:52;;;;;;;3.90;1.17;;;15.10;67.50;;;9.78;100.00;94376.97;4963082;28;20101;-53
2024/02/08 12:20:19;;;;;;;1.30;1.10;;;15.10;67.30;;;9.88;100.00;94362.72;4967242;28;20435;-55
2024/02/08 12:22:55;;;;;;;2.00;1.05;;;15.20;67.20;;;9.96;100.00;94360.22;4966948;28;20053;-55
2024/02/08 12:25:21;;;;;;;1.20;1.00;;;15.20;67.10;;;9.95;100.00;94353.28;4970783;28;20048;-55
2024/02/08 12:27:57;;;;;;;2.88;1.42;;;15.30;67.10;;;9.99;100.00;94358.03;4967768;28;20054;-59
2024/02/08 12:30:39;;;;;;;1.45;1.20;;;15.40;66.80;;;10.00;100.00;94363.06;4967049;28;20496;-53
2024/02/08 12:33:10;;;;;;;2.55;1.35;;;15.40;66.50;;;10.11;100.00;94364.47;4969572;28;20026;-55
2024/02/08 12:35:40;;;;;;;1.90;1.30;;;15.50;66.30;;;10.18;100.00;94356.94;4964797;28;20030;-53
2024/02/08 12:38:11;;;;;;;2.10;0.88;;;15.50;66.30;;;10.19;100.00;94353.19;4966855;28;20041;-50
2024/02/08 12:40:39;;;;;;;1.10;1.00;;;15.50;66.00;;;10.25;100.00;94340.59;4969230;28;20042;-54
2024/02/08 12:43:08;;;;;;;2.47;1.42;;;15.50;65.80;;;10.18;100.00;94332.97;4967937;28;20108;-52
2024/02/08 12:45:35;;;;;;;1.48;1.13;;;15.50;65.50;;;10.16;100.00;94334.34;4966429;28;20026;-52